createdAt,value
2023-12-11T00:02:20.594Z,89.82
2023-12-11T00:07:22.903Z,90.46
2023-12-11T00:12:26.543Z,90.24
2023-12-11T00:17:29.571Z,91.12
2023-12-11T00:22:32.052Z,91.71
2023-12-11T00:27:36.046Z,91.59
2023-12-11T00:32:38.335Z,91.45
2023-12-11T00:37:40.609Z,91.51
2023-12-11T00:42:44.403Z,91.65
2023-12-11T00:47:46.731Z,91.20
2023-12-11T00:52:49.342Z,91.20
2023-12-11T00:57:53.024Z,91.46
2023-12-11T01:02:55.432Z,91.87
2023-12-11T01:07:57.807Z,91.98
2023-12-11T01:13:01.489Z,91.85
2023-12-11T01:18:05.263Z,91.63
2023-12-11T01:23:07.645Z,91.57
2023-12-11T01:28:11.439Z,90.32
2023-12-11T01:33:13.859Z,90.23
2023-12-11T01:38:16.243Z,89.43
2023-12-11T01:43:21.485Z,87.87
2023-12-11T01:48:23.997Z,87.07
2023-12-11T01:53:27.620Z,85.80
2023-12-11T01:58:31.805Z,85.19
2023-12-11T02:03:34.271Z,84.83
2023-12-11T02:08:36.777Z,84.77
2023-12-11T02:13:41.606Z,84.26
2023-12-11T02:18:44.187Z,83.30
2023-12-11T02:23:52.411Z,82.97
2023-12-11T02:28:56.161Z,82.99
2023-12-11T02:33:58.523Z,82.43
2023-12-11T02:39:00.929Z,81.78
2023-12-11T02:44:04.818Z,81.77
2023-12-11T02:49:07.461Z,80.74
2023-12-11T02:54:09.848Z,81.07
2023-12-11T02:59:13.481Z,80.64
2023-12-11T03:04:15.891Z,82.20
2023-12-11T03:09:18.245Z,81.71
2023-12-11T03:14:21.893Z,81.44
2023-12-11T03:19:25.628Z,80.29
2023-12-11T03:24:27.945Z,80.29
2023-12-11T03:29:31.630Z,77.29
2023-12-11T03:34:33.992Z,74.31
2023-12-11T03:39:36.284Z,73.80
2023-12-11T03:44:40.147Z,73.91
2023-12-11T03:49:42.527Z,73.66
2023-12-11T03:54:44.847Z,73.90
2023-12-11T03:59:48.661Z,72.35
2023-12-11T04:04:51.082Z,71.82
2023-12-11T04:09:53.457Z,70.57
2023-12-11T04:14:57.236Z,70.92
2023-12-11T04:19:59.588Z,70.20
2023-12-11T04:25:01.940Z,70.62
2023-12-11T04:30:07.081Z,69.42
2023-12-11T04:35:09.730Z,68.12
2023-12-11T04:40:12.923Z,68.00
2023-12-11T04:45:16.454Z,67.72
2023-12-11T04:50:18.740Z,68.56
2023-12-11T04:55:21.038Z,69.66
2023-12-11T05:00:24.808Z,70.26
2023-12-11T05:05:27.220Z,71.18
2023-12-11T05:10:29.675Z,72.71
2023-12-11T05:15:33.362Z,74.16
2023-12-11T05:20:35.680Z,75.63
2023-12-11T05:25:37.970Z,75.83
2023-12-11T05:30:41.678Z,77.18
2023-12-11T05:35:43.994Z,78.10
2023-12-11T05:40:46.680Z,79.29
2023-12-11T05:45:50.532Z,79.16
2023-12-11T05:50:52.898Z,80.40
2023-12-11T05:55:55.320Z,81.53
2023-12-11T06:00:59.143Z,81.64
2023-12-11T06:06:01.830Z,81.96
2023-12-11T06:11:04.452Z,82.17
2023-12-11T06:16:10.300Z,83.12
2023-12-11T06:21:18.741Z,82.80
2023-12-11T06:26:29.921Z,83.25
2023-12-11T06:31:33.624Z,83.30
2023-12-11T06:36:35.951Z,84.03
2023-12-11T06:41:38.257Z,84.05
2023-12-11T06:46:42.042Z,84.10
2023-12-11T06:51:44.367Z,84.67
2023-12-11T06:56:46.707Z,84.69
2023-12-11T07:01:50.567Z,85.57
2023-12-11T07:06:53.008Z,85.61
2023-12-11T07:11:55.343Z,85.19
2023-12-11T07:16:59.046Z,85.42
2023-12-11T07:22:01.369Z,85.55
2023-12-11T07:27:03.967Z,86.14
2023-12-11T07:32:08.208Z,86.48
2023-12-11T07:37:10.502Z,86.70
2023-12-11T07:42:12.926Z,88.06
2023-12-11T07:47:16.745Z,87.62
2023-12-11T07:52:19.067Z,87.23
2023-12-11T07:57:21.418Z,88.16
2023-12-11T08:02:25.467Z,89.19
2023-12-11T08:07:28.056Z,90.05
2023-12-11T08:12:32.018Z,89.32
2023-12-11T08:17:35.732Z,89.36
2023-12-11T08:22:38.111Z,88.25
2023-12-11T08:27:40.818Z,86.32
2023-12-11T08:32:44.554Z,84.73
2023-12-11T08:37:46.890Z,84.85
2023-12-11T08:42:49.232Z,85.66
2023-12-11T08:47:52.923Z,86.45
2023-12-11T08:52:55.234Z,85.86
2023-12-11T08:57:57.834Z,86.27
2023-12-11T09:03:01.767Z,87.49
2023-12-11T09:08:04.363Z,87.21
2023-12-11T09:13:06.773Z,87.33
2023-12-11T09:18:11.255Z,87.23
2023-12-11T09:23:13.580Z,86.86
2023-12-11T09:28:16.564Z,86.33
2023-12-11T09:33:20.450Z,86.17
2023-12-11T09:38:22.763Z,86.66
2023-12-11T09:43:26.789Z,86.95
2023-12-11T09:48:30.606Z,86.11
2023-12-11T09:53:33.545Z,86.32
2023-12-11T09:58:36.877Z,85.89
2023-12-11T10:03:40.706Z,89.69
2023-12-11T10:08:43.993Z,86.70
2023-12-11T10:13:48.294Z,87.00
2023-12-11T10:18:53.224Z,87.85
2023-12-11T10:24:03.773Z,87.90
2023-12-11T10:29:18.433Z,86.26
2023-12-11T10:34:41.343Z,86.79
2023-12-11T10:39:52.221Z,86.63
2023-12-11T10:44:55.747Z,86.70
2023-12-11T10:50:03.190Z,86.13
2023-12-11T10:55:06.092Z,84.90
2023-12-11T11:00:14.592Z,85.38
2023-12-11T11:05:19.691Z,85.36
2023-12-11T11:10:26.502Z,85.81
2023-12-11T11:15:29.033Z,85.82
2023-12-11T11:20:33.909Z,85.68
2023-12-11T11:25:38.214Z,83.99
2023-12-11T11:30:50.007Z,83.73
2023-12-11T11:35:55.114Z,83.48
2023-12-11T11:40:57.828Z,83.75
2023-12-11T11:46:02.672Z,82.74
2023-12-11T11:51:06.830Z,81.33
2023-12-11T11:56:10.639Z,79.82
2023-12-11T12:01:13.364Z,79.40
2023-12-11T12:06:18.199Z,79.84
2023-12-11T12:11:20.499Z,82.33
2023-12-11T12:16:29.939Z,81.91
2023-12-11T12:21:46.257Z,81.23
2023-12-11T12:26:53.107Z,83.59
2023-12-11T12:31:55.651Z,85.43
2023-12-11T12:37:02.407Z,86.04
2023-12-11T12:42:05.495Z,86.25
2023-12-11T12:47:11.009Z,87.17
2023-12-11T12:52:31.787Z,88.43
2023-12-11T12:57:37.368Z,88.94
2023-12-11T13:02:39.683Z,89.89
2023-12-11T13:07:45.601Z,89.53
2023-12-11T13:12:49.905Z,90.03
2023-12-11T13:17:54.180Z,91.36
2023-12-11T13:22:57.949Z,90.84
2023-12-11T13:28:00.553Z,91.46
2023-12-11T13:33:02.902Z,91.46
2023-12-11T13:38:06.550Z,91.00
2023-12-11T13:43:08.813Z,91.13
2023-12-11T13:48:11.137Z,91.96
2023-12-11T13:53:14.849Z,92.24
2023-12-11T13:58:18.185Z,91.76
2023-12-11T14:03:23.413Z,91.85
2023-12-11T14:08:27.228Z,92.23
2023-12-11T14:13:29.510Z,91.55
2023-12-11T14:18:32.842Z,91.57
2023-12-11T14:23:36.270Z,91.95
2023-12-11T14:28:38.526Z,92.07
2023-12-11T14:33:41.055Z,92.59
2023-12-11T14:38:44.819Z,92.27
2023-12-11T14:43:47.085Z,92.46
2023-12-11T14:48:49.873Z,92.86
2023-12-11T14:53:54.901Z,92.85
2023-12-11T14:58:57.180Z,93.04
2023-12-11T15:03:59.952Z,92.58
2023-12-11T15:09:07.985Z,93.41
2023-12-11T15:14:11.125Z,93.53
2023-12-11T15:19:13.877Z,94.50
2023-12-11T15:24:17.901Z,93.22
2023-12-11T15:29:20.179Z,92.63
2023-12-11T15:34:22.679Z,91.94
2023-12-11T15:39:26.442Z,91.05
2023-12-11T15:44:28.758Z,91.07
2023-12-11T15:49:31.121Z,92.27
2023-12-11T15:54:34.981Z,91.66
2023-12-11T15:59:38.128Z,89.53
2023-12-11T16:04:40.525Z,89.50
2023-12-11T16:09:45.583Z,88.87
2023-12-11T16:14:48.770Z,88.74
2023-12-11T16:19:51.128Z,89.19
2023-12-11T16:24:54.915Z,89.54
2023-12-11T16:29:58.952Z,90.13
2023-12-11T16:35:01.293Z,91.42
2023-12-11T16:40:07.917Z,91.91
2023-12-11T16:45:11.751Z,91.08
2023-12-11T16:50:14.486Z,90.46
2023-12-11T16:55:18.544Z,88.80
2023-12-11T17:00:21.196Z,88.41
2023-12-11T17:05:23.653Z,87.85
2023-12-11T17:10:27.638Z,88.67
2023-12-11T17:15:30.037Z,88.67
2023-12-11T17:20:32.390Z,88.50
2023-12-11T17:25:36.035Z,88.91
2023-12-11T17:30:39.880Z,89.54
2023-12-11T17:35:42.124Z,89.58
2023-12-11T17:40:45.815Z,89.41
2023-12-11T17:45:48.168Z,89.04
2023-12-11T17:50:50.513Z,89.87
2023-12-11T17:55:54.192Z,88.83
2023-12-11T18:00:56.592Z,88.29
2023-12-11T18:05:58.984Z,88.50
2023-12-11T18:11:02.636Z,89.96
2023-12-11T18:16:05.857Z,90.89
2023-12-11T18:21:07.949Z,91.84
2023-12-11T18:26:13.031Z,92.53
2023-12-11T18:31:15.397Z,92.90
2023-12-11T18:36:18.228Z,92.20
2023-12-11T18:41:25.068Z,91.17
2023-12-11T18:46:27.429Z,92.29
2023-12-11T18:51:31.402Z,91.96
2023-12-11T18:56:35.638Z,91.28
2023-12-11T19:01:38.004Z,90.75
2023-12-11T19:06:40.325Z,90.84
2023-12-11T19:11:44.048Z,91.99
2023-12-11T19:16:46.398Z,91.37
2023-12-11T19:21:50.412Z,92.52
2023-12-11T19:26:54.155Z,91.65
2023-12-11T19:31:56.484Z,90.26
2023-12-11T19:37:00.942Z,89.87
2023-12-11T19:42:05.095Z,89.86
2023-12-11T19:47:07.446Z,89.07
2023-12-11T19:52:09.771Z,88.48
2023-12-11T19:57:13.502Z,87.97
2023-12-11T20:02:15.976Z,89.13
2023-12-11T20:07:19.845Z,90.60
2023-12-11T20:12:24.056Z,91.61
2023-12-11T20:17:26.354Z,92.07
2023-12-11T20:22:28.731Z,93.14
2023-12-11T20:27:32.790Z,92.97
2023-12-11T20:32:35.542Z,93.18
2023-12-11T20:37:38.865Z,92.46
2023-12-11T20:42:42.744Z,91.46
2023-12-11T20:47:45.052Z,90.49
2023-12-11T20:52:47.682Z,89.06
2023-12-11T20:57:52.915Z,87.73
2023-12-11T21:02:55.182Z,86.87
2023-12-11T21:07:57.713Z,86.33
2023-12-11T21:13:01.456Z,86.22
2023-12-11T21:18:03.996Z,87.19
2023-12-11T21:23:06.354Z,88.19
2023-12-11T21:28:10.062Z,89.39
2023-12-11T21:33:12.405Z,89.36
2023-12-11T21:38:15.744Z,89.59
2023-12-11T21:43:19.496Z,89.50
2023-12-11T21:48:21.835Z,88.78
2023-12-11T21:53:24.113Z,90.62
2023-12-11T21:58:27.978Z,90.76
2023-12-11T22:03:30.299Z,89.90
2023-12-11T22:08:32.732Z,89.26
2023-12-11T22:13:36.436Z,89.06
2023-12-11T22:18:38.901Z,88.12
2023-12-11T22:23:41.250Z,87.99
2023-12-11T22:28:45.735Z,86.56
2023-12-11T22:33:48.153Z,86.81
2023-12-11T22:38:50.909Z,87.04
2023-12-11T22:43:54.950Z,87.34
2023-12-11T22:48:57.548Z,89.29
2023-12-11T22:53:59.987Z,89.82
2023-12-11T22:59:03.731Z,90.07
2023-12-11T23:04:06.016Z,90.37
2023-12-11T23:09:08.578Z,89.24
2023-12-11T23:14:12.325Z,87.77
2023-12-11T23:19:14.816Z,87.46
2023-12-11T23:24:18.441Z,87.17
2023-12-11T23:29:22.153Z,86.38
2023-12-11T23:34:24.440Z,86.39
2023-12-11T23:39:26.702Z,85.79
2023-12-11T23:44:30.375Z,85.33
2023-12-11T23:49:32.803Z,85.06
2023-12-11T23:54:35.092Z,85.47
2023-12-11T23:59:38.770Z,85.17
